Time;durP1;ratioP1;P1;durP2;ratioP2;P2;SDS_P1;SDS_P2;PMS_P1;PMS_P2;Temp;Humidity;BMP_temperature;BMP_pressure;BME280_temperature;BME280_humidity;BME280_pressure;Samples;Min_cycle;Max_cycle;Signal;HPM_P1;HPM_P2
2022/04/15 00:00:26;;;;;;;5.90;5.40;;;15.60;95.50;;;;;;5013192;28;20619;-70
2022/04/15 00:02:52;;;;;;;6.53;5.93;;;15.70;95.50;;;;;;5012721;28;20467;-64
2022/04/15 00:05:37;;;;;;;6.03;5.53;;;15.60;95.60;;;;;;5012071;28;20785;-64
2022/04/15 00:08:06;;;;;;;6.93;5.90;;;15.60;95.70;;;;;;5013165;28;20407;-64
2022/04/15 00:10:33;;;;;;;5.60;5.20;;;15.60;95.50;;;;;;5012165;28;20519;-65
2022/04/15 00:13:00;;;;;;;6.23;5.63;;;15.50;95.80;;;;;;5012726;28;20507;-64
2022/04/15 00:15:27;;;;;;;6.67;6.17;;;15.50;95.80;;;;;;5010781;28;20476;-64
2022/04/15 00:17:54;;;;;;;7.80;6.97;;;15.40;95.70;;;;;;5012373;28;20515;-64
2022/04/15 00:20:20;;;;;;;6.90;6.30;;;15.40;96.00;;;;;;5012675;28;20951;-64
2022/04/15 00:22:46;;;;;;;7.43;6.13;;;15.30;96.20;;;;;;5011540;28;20476;-64
2022/04/15 00:25:12;;;;;;;7.03;6.33;;;15.40;96.30;;;;;;4994910;28;20436;-64
2022/04/15 00:27:40;;;;;;;8.83;5.80;;;15.30;96.30;;;;;;5011648;28;20550;-65
2022/04/15 00:30:09;;;;;;;6.57;5.93;;;15.20;96.40;;;;;;5012312;28;21077;-64
2022/04/15 00:32:35;;;;;;;6.30;5.80;;;15.20;96.60;;;;;;5011774;28;20428;-65
2022/04/15 00:35:02;;;;;;;6.70;6.10;;;15.20;96.50;;;;;;5012623;28;20507;-64
2022/04/15 00:37:28;;;;;;;6.77;5.87;;;15.10;96.50;;;;;;5012301;28;20437;-69
2022/04/15 00:39:53;;;;;;;7.20;6.50;;;15.10;96.50;;;;;;5012109;28;20416;-64
2022/04/15 00:42:23;;;;;;;6.87;6.30;;;15.00;96.60;;;;;;5011135;28;20251;-64
2022/04/15 00:44:54;;;;;;;6.10;5.50;;;14.90;96.40;;;;;;5011581;28;20205;-64
2022/04/15 00:47:51;;;;;;;7.03;6.43;;;14.90;96.60;;;;;;5012025;28;20400;-64
2022/04/15 00:50:21;;;;;;;8.10;7.50;;;14.90;96.70;;;;;;5012588;28;20513;-64
2022/04/15 00:52:49;;;;;;;7.67;6.97;;;14.70;96.90;;;;;;5011748;28;20399;-65
2022/04/15 00:55:15;;;;;;;8.40;7.13;;;14.70;97.20;;;;;;5012499;28;20414;-64
2022/04/15 00:57:44;;;;;;;8.00;7.30;;;14.70;97.40;;;;;;5011481;28;20476;-64
2022/04/15 01:00:13;;;;;;;7.40;6.70;;;14.60;97.40;;;;;;5012124;28;20427;-65
2022/04/15 01:02:39;;;;;;;7.30;6.63;;;14.60;97.60;;;;;;5011624;28;20459;-64
2022/04/15 01:05:08;;;;;;;7.73;7.03;;;14.60;97.70;;;;;;5012455;28;20430;-65
2022/04/15 01:07:40;;;;;;;7.73;7.17;;;14.50;97.80;;;;;;5011596;28;20494;-68
2022/04/15 01:10:11;;;;;;;7.90;6.90;;;14.50;97.90;;;;;;5012852;28;20441;-64
2022/04/15 01:12:39;;;;;;;8.30;7.17;;;14.50;98.00;;;;;;5011027;28;20441;-64
2022/04/15 01:15:08;;;;;;;7.90;7.10;;;14.40;98.00;;;;;;5012082;28;21012;-64
2022/04/15 01:17:34;;;;;;;8.20;7.50;;;14.40;97.80;;;;;;5011385;28;20436;-71
2022/04/15 01:20:04;;;;;;;8.10;7.30;;;14.40;98.00;;;;;;5012441;28;20413;-64
2022/04/15 01:22:46;;;;;;;7.50;6.70;;;14.40;98.30;;;;;;5012255;28;20588;-64
2022/04/15 01:25:14;;;;;;;7.77;7.13;;;14.40;98.40;;;;;;5011691;28;20988;-64
2022/04/15 01:27:42;;;;;;;8.00;7.17;;;14.40;98.20;;;;;;5012555;28;20427;-64
2022/04/15 01:30:19;;;;;;;7.80;7.10;;;14.40;98.30;;;;;;5015539;28;20437;-64
2022/04/15 01:32:46;;;;;;;7.97;7.20;;;14.30;98.50;;;;;;4995305;28;20430;-64
2022/04/15 01:35:13;;;;;;;8.50;7.70;;;14.30;98.40;;;;;;4996327;28;20414;-64
2022/04/15 01:37:40;;;;;;;9.03;8.13;;;14.30;98.50;;;;;;4998072;28;20476;-65
2022/04/15 01:40:08;;;;;;;7.97;7.20;;;14.20;98.50;;;;;;4998648;28;20425;-64
2022/04/15 01:42:35;;;;;;;8.83;8.03;;;14.20;98.60;;;;;;5014933;28;20449;-70
2022/04/15 01:45:01;;;;;;;10.23;9.23;;;14.20;98.70;;;;;;5016006;28;20451;-64
2022/04/15 01:47:27;;;;;;;8.70;7.40;;;14.20;99.20;;;;;;5015370;28;20497;-64
2022/04/15 01:49:53;;;;;;;7.97;7.17;;;14.10;99.20;;;;;;5014940;28;20934;-64
2022/04/15 01:52:19;;;;;;;7.80;7.10;;;14.10;99.10;;;;;;5015758;28;20908;-64
2022/04/15 01:54:45;;;;;;;8.17;7.47;;;14.10;99.10;;;;;;5015053;28;20420;-64
2022/04/15 01:57:11;;;;;;;7.77;7.07;;;14.00;99.30;;;;;;5015510;28;20190;-64
2022/04/15 01:59:38;;;;;;;8.70;7.80;;;14.00;99.30;;;;;;5013448;28;20788;-65
2022/04/15 02:02:04;;;;;;;9.00;8.10;;;14.00;99.30;;;;;;5015269;28;20543;-64
2022/04/15 02:04:30;;;;;;;9.40;8.30;;;13.90;99.40;;;;;;5015385;28;20431;-64
2022/04/15 02:06:57;;;;;;;10.10;9.10;;;13.90;99.80;;;;;;5014371;28;21049;-65
2022/04/15 02:09:22;;;;;;;10.63;8.67;;;13.90;99.90;;;;;;5014823;28;20422;-64
2022/04/15 02:11:48;;;;;;;9.43;8.43;;;13.80;99.80;;;;;;5014454;28;20444;-64
2022/04/15 02:14:16;;;;;;;8.60;7.80;;;13.80;99.90;;;;;;5015166;28;20534;-64
2022/04/15 02:16:43;;;;;;;8.40;7.60;;;13.70;99.90;;;;;;5014373;28;20416;-64
2022/04/15 02:19:08;;;;;;;11.40;7.90;;;13.70;99.90;;;;;;5015199;28;20441;-64
2022/04/15 02:21:34;;;;;;;9.77;8.80;;;13.70;99.90;;;;;;5014612;28;20429;-71
2022/04/15 02:24:00;;;;;;;8.80;7.90;;;13.60;99.90;;;;;;5014309;28;20182;-64
2022/04/15 02:26:26;;;;;;;9.87;8.87;;;13.60;99.90;;;;;;5014619;28;20695;-64
2022/04/15 02:28:52;;;;;;;11.10;9.20;;;13.60;99.90;;;;;;5012963;28;20205;-64
2022/04/15 02:31:17;;;;;;;10.30;8.40;;;13.50;99.90;;;;;;5014045;28;20425;-64
2022/04/15 02:33:44;;;;;;;10.40;8.63;;;13.50;99.90;;;;;;5012559;28;20543;-64
2022/04/15 02:36:10;;;;;;;9.57;8.53;;;13.50;99.90;;;;;;5015226;28;20179;-64
2022/04/15 02:38:36;;;;;;;10.43;9.30;;;13.50;99.90;;;;;;5012844;28;20427;-70
2022/04/15 02:41:04;;;;;;;10.47;9.47;;;13.40;99.90;;;;;;5014055;28;20432;-64
2022/04/15 02:43:33;;;;;;;12.77;10.03;;;13.40;99.90;;;;;;5014612;28;20214;-64
2022/04/15 02:46:03;;;;;;;10.50;9.50;;;13.40;99.90;;;;;;5013618;28;21202;-64
2022/04/15 02:48:30;;;;;;;10.67;9.53;;;13.40;99.90;;;;;;5014557;28;20468;-64
2022/04/15 02:50:56;;;;;;;10.73;9.00;;;13.40;99.90;;;;;;5013553;28;20435;-64
2022/04/15 02:53:23;;;;;;;11.23;10.03;;;13.40;99.90;;;;;;5013933;28;20432;-64
2022/04/15 02:55:49;;;;;;;12.10;10.90;;;13.40;99.90;;;;;;5013573;28;20435;-64
2022/04/15 02:58:15;;;;;;;14.40;10.53;;;13.30;99.90;;;;;;5013900;28;20946;-64
2022/04/15 03:00:41;;;;;;;11.37;10.27;;;13.20;99.90;;;;;;5013590;28;20422;-66
2022/04/15 03:03:07;;;;;;;10.80;9.77;;;13.20;99.90;;;;;;5013981;28;20563;-64
2022/04/15 03:05:33;;;;;;;11.40;10.20;;;13.30;99.90;;;;;;5013835;28;20431;-64
2022/04/15 03:07:58;;;;;;;10.57;8.80;;;13.20;99.90;;;;;;5013660;28;20172;-64
2022/04/15 03:10:24;;;;;;;11.10;9.60;;;13.20;99.90;;;;;;5012739;28;20186;-64
2022/04/15 03:12:50;;;;;;;11.03;9.90;;;13.10;99.90;;;;;;5013336;28;20188;-64
2022/04/15 03:15:16;;;;;;;10.37;9.37;;;13.10;99.90;;;;;;5014041;28;20406;-64
2022/04/15 03:17:42;;;;;;;10.83;9.13;;;13.10;99.90;;;;;;5011721;28;20272;-67
2022/04/15 03:20:09;;;;;;;12.13;10.40;;;13.00;99.90;;;;;;5014037;28;20422;-64
2022/04/15 03:22:38;;;;;;;10.07;9.07;;;13.00;99.90;;;;;;5013834;28;20458;-64
2022/04/15 03:25:06;;;;;;;10.00;9.00;;;12.90;99.90;;;;;;5013737;28;20477;-64
2022/04/15 03:27:32;;;;;;;10.30;9.30;;;12.90;99.90;;;;;;5013566;28;20412;-64
2022/04/15 03:29:58;;;;;;;10.37;9.30;;;12.90;99.90;;;;;;5012766;28;20470;-64
2022/04/15 03:32:24;;;;;;;9.97;8.83;;;12.80;99.90;;;;;;5013711;28;20527;-64
2022/04/15 03:34:57;;;;;;;11.07;9.47;;;12.80;99.90;;;;;;5011419;28;20426;-64
2022/04/15 03:37:23;;;;;;;9.90;8.90;;;12.70;99.90;;;;;;5013685;28;20413;-64
2022/04/15 03:39:49;;;;;;;10.07;9.07;;;12.70;99.90;;;;;;5012629;28;20897;-64
2022/04/15 03:42:15;;;;;;;8.87;8.00;;;12.70;99.90;;;;;;5013014;28;20494;-64
2022/04/15 03:44:41;;;;;;;9.40;8.60;;;12.60;99.90;;;;;;5013093;28;20465;-69
2022/04/15 03:47:07;;;;;;;9.53;8.63;;;12.20;99.90;;;;;;5011344;28;20181;-64
2022/04/15 03:49:33;;;;;;;9.60;8.70;;;12.50;99.90;;;;;;5012454;28;20217;-64
2022/04/15 03:52:00;;;;;;;9.60;8.77;;;12.40;99.90;;;;;;5012242;28;20508;-64
2022/04/15 03:54:25;;;;;;;9.90;9.00;;;12.50;99.90;;;;;;5013016;28;20432;-64
2022/04/15 03:56:51;;;;;;;9.27;8.37;;;12.50;99.90;;;;;;5012315;28;20417;-64
2022/04/15 03:59:17;;;;;;;9.10;8.23;;;12.50;99.90;;;;;;5013157;28;20218;-64
2022/04/15 04:01:44;;;;;;;9.30;8.40;;;12.40;99.90;;;;;;5012178;28;20183;-68
2022/04/15 04:04:09;;;;;;;9.50;8.47;;;12.40;99.90;;;;;;5013225;28;20414;-64
2022/04/15 04:06:36;;;;;;;8.83;8.13;;;12.30;99.90;;;;;;5013164;28;20463;-64
2022/04/15 04:09:01;;;;;;;9.60;8.70;;;12.30;99.90;;;;;;5012148;28;20235;-64
2022/04/15 04:11:27;;;;;;;10.40;8.97;;;12.30;99.90;;;;;;5013164;28;20920;-64
2022/04/15 04:13:53;;;;;;;10.30;9.40;;;12.20;99.90;;;;;;5012257;28;20180;-65
2022/04/15 04:16:18;;;;;;;11.70;10.50;;;12.20;99.90;;;;;;5013190;28;20178;-65
2022/04/15 04:18:45;;;;;;;10.87;9.87;;;12.20;99.90;;;;;;5011385;28;20541;-70
2022/04/15 04:21:11;;;;;;;10.03;9.13;;;12.10;99.90;;;;;;5012929;28;20175;-64
2022/04/15 04:23:38;;;;;;;10.10;9.20;;;12.10;99.90;;;;;;5012701;28;20477;-64
2022/04/15 04:26:04;;;;;;;10.33;9.20;;;12.10;99.90;;;;;;5010767;28;20912;-64
2022/04/15 04:28:31;;;;;;;10.60;9.60;;;12.00;99.90;;;;;;5012907;28;20481;-64
2022/04/15 04:30:57;;;;;;;10.00;9.10;;;12.00;99.90;;;;;;5011887;28;20425;-64
2022/04/15 04:33:22;;;;;;;10.37;9.20;;;11.90;99.90;;;;;;5012191;28;20425;-64
2022/04/15 04:35:49;;;;;;;9.77;8.97;;;11.90;99.90;;;;;;5011995;28;20203;-65
2022/04/15 04:38:15;;;;;;;9.63;8.73;;;11.90;99.90;;;;;;5011739;28;20525;-64
2022/04/15 04:40:41;;;;;;;9.93;8.27;;;11.90;99.90;;;;;;5012586;28;20418;-64
2022/04/15 04:43:08;;;;;;;10.97;9.87;;;11.90;99.90;;;;;;5011857;28;20469;-64
2022/04/15 04:45:35;;;;;;;9.93;9.03;;;11.90;99.90;;;;;;5012572;28;20831;-64
2022/04/15 04:48:01;;;;;;;10.00;9.10;;;11.90;99.90;;;;;;5011850;28;20457;-64
2022/04/15 04:50:29;;;;;;;10.17;9.13;;;11.90;99.90;;;;;;5012300;28;20445;-64
2022/04/15 04:52:54;;;;;;;11.57;10.40;;;12.00;99.90;;;;;;5011735;28;20426;-64
2022/04/15 04:55:20;;;;;;;10.90;9.60;;;12.00;99.90;;;;;;5012474;28;20432;-64
2022/04/15 04:57:46;;;;;;;13.57;9.67;;;12.00;99.90;;;;;;5010383;28;20187;-69
2022/04/15 05:00:14;;;;;;;10.97;9.87;;;12.10;99.90;;;;;;5011982;28;20188;-64
2022/04/15 05:02:40;;;;;;;10.73;9.73;;;12.10;99.90;;;;;;5015107;28;20464;-64
2022/04/15 05:05:07;;;;;;;13.50;10.70;;;12.20;99.90;;;;;;5015704;28;20505;-64
2022/04/15 05:07:32;;;;;;;12.60;11.40;;;12.20;99.90;;;;;;5015819;28;20958;-64
2022/04/15 05:09:58;;;;;;;11.93;10.77;;;12.30;99.90;;;;;;5015657;28;20409;-64
2022/04/15 05:12:24;;;;;;;13.00;11.60;;;12.30;99.90;;;;;;5014720;28;20266;-64
2022/04/15 05:14:50;;;;;;;12.97;11.63;;;12.30;99.90;;;;;;5014961;28;20182;-64
2022/04/15 05:17:16;;;;;;;15.80;13.90;;;12.40;99.90;;;;;;5015958;28;20472;-64
2022/04/15 05:19:45;;;;;;;15.13;11.93;;;12.40;99.90;;;;;;5015617;28;20458;-64
2022/04/15 05:22:12;;;;;;;30.30;20.67;;;12.50;99.90;;;;;;5014895;28;20482;-64
2022/04/15 05:24:38;;;;;;;35.30;24.50;;;12.50;99.90;;;;;;5014498;28;20438;-64
2022/04/15 05:27:04;;;;;;;35.93;24.40;;;12.50;99.90;;;;;;5014032;28;20427;-64
2022/04/15 05:29:30;;;;;;;39.40;26.57;;;12.60;99.90;;;;;;5014733;28;20420;-64
2022/04/15 05:31:56;;;;;;;39.20;26.73;;;12.60;99.90;;;;;;5013562;28;20832;-64
2022/04/15 05:34:21;;;;;;;33.90;25.70;;;12.60;99.90;;;;;;5016007;28;20183;-64
2022/04/15 05:36:47;;;;;;;34.60;26.40;;;12.60;99.90;;;;;;5015501;28;20539;-70
2022/04/15 05:39:13;;;;;;;38.20;26.33;;;12.60;99.90;;;;;;5015319;28;20621;-64
2022/04/15 05:41:38;;;;;;;32.87;24.93;;;12.60;99.90;;;;;;5015325;28;20585;-64
2022/04/15 05:44:04;;;;;;;30.30;22.33;;;12.50;99.90;;;;;;5015065;28;20237;-64
2022/04/15 05:46:31;;;;;;;32.27;22.37;;;12.50;99.90;;;;;;5016060;28;20548;-64
2022/04/15 05:48:57;;;;;;;31.27;23.30;;;12.50;99.90;;;;;;5014367;28;20477;-64
2022/04/15 05:51:22;;;;;;;31.00;22.00;;;12.50;99.90;;;;;;5014677;28;20480;-64
2022/04/15 05:53:48;;;;;;;30.30;22.80;;;12.60;99.90;;;;;;5014248;28;20183;-64
2022/04/15 05:56:14;;;;;;;305.83;181.80;;;12.50;99.90;;;;;;5015618;28;20170;-63
2022/04/15 05:58:40;;;;;;;458.20;303.33;;;12.40;99.90;;;;;;5014544;28;20576;-63
2022/04/15 06:01:09;;;;;;;35.13;24.83;;;12.40;99.90;;;;;;5014372;28;20567;-64
2022/04/15 06:03:35;;;;;;;29.00;20.27;;;12.50;99.90;;;;;;5015299;28;20494;-63
2022/04/15 06:06:01;;;;;;;33.97;22.67;;;12.60;99.90;;;;;;5014051;28;20861;-63
2022/04/15 06:08:28;;;;;;;29.03;20.70;;;12.70;99.90;;;;;;5014702;28;20512;-63
2022/04/15 06:10:54;;;;;;;29.60;20.50;;;12.90;99.90;;;;;;5014054;28;20431;-63
2022/04/15 06:13:22;;;;;;;28.37;19.90;;;13.00;99.90;;;;;;5014858;28;20844;-63
2022/04/15 06:15:53;;;;;;;24.10;17.47;;;13.20;99.90;;;;;;5014819;28;20749;-69
2022/04/15 06:18:23;;;;;;;25.27;18.63;;;13.30;99.90;;;;;;5015374;28;20436;-63
2022/04/15 06:20:49;;;;;;;22.77;17.47;;;13.50;99.90;;;;;;5014289;28;20519;-69
2022/04/15 06:23:16;;;;;;;27.80;19.90;;;13.60;99.90;;;;;;5014373;28;20456;-63
2022/04/15 06:25:43;;;;;;;21.97;17.93;;;13.60;99.90;;;;;;5014821;28;20886;-63
2022/04/15 06:28:09;;;;;;;22.73;17.70;;;13.60;99.90;;;;;;5013906;28;20921;-63
2022/04/15 06:30:35;;;;;;;23.87;17.40;;;13.60;99.90;;;;;;5014787;28;20913;-63
2022/04/15 06:33:01;;;;;;;23.37;18.23;;;13.60;99.90;;;;;;5013947;28;20440;-63
2022/04/15 06:35:27;;;;;;;257.27;164.17;;;13.60;99.90;;;;;;5014111;28;20443;-63
2022/04/15 06:37:52;;;;;;;56.37;37.67;;;13.60;99.90;;;;;;5012968;28;20946;-66
2022/04/15 06:40:18;;;;;;;22.97;18.50;;;13.60;99.90;;;;;;5014476;28;20178;-66
2022/04/15 06:42:44;;;;;;;21.40;16.77;;;13.50;99.90;;;;;;5014716;28;20206;-66
2022/04/15 06:45:13;;;;;;;21.00;15.83;;;13.30;99.90;;;;;;5013375;28;20190;-66
2022/04/15 06:47:39;;;;;;;21.00;17.00;;;13.10;99.90;;;;;;5013764;28;20468;-66
2022/04/15 06:50:05;;;;;;;20.83;17.07;;;13.00;99.90;;;;;;5013380;28;20443;-67
2022/04/15 06:52:31;;;;;;;20.50;16.30;;;12.80;99.90;;;;;;5013649;28;20474;-66
2022/04/15 06:54:57;;;;;;;23.73;17.67;;;12.70;99.90;;;;;;5012940;28;20480;-66
2022/04/15 06:57:22;;;;;;;21.07;15.93;;;12.60;99.90;;;;;;5013988;28;20186;-66
2022/04/15 06:59:48;;;;;;;23.23;15.63;;;12.60;99.90;;;;;;5013463;28;20262;-66
2022/04/15 07:02:14;;;;;;;18.07;15.77;;;12.60;99.90;;;;;;5020049;28;20194;-66
2022/04/15 07:04:40;;;;;;;260.67;175.77;;;12.50;99.90;;;;;;5017463;28;20194;-66
2022/04/15 07:07:06;;;;;;;217.43;140.27;;;12.40;99.90;;;;;;5012693;28;20182;-66
2022/04/15 07:09:31;;;;;;;22.37;16.73;;;12.40;99.90;;;;;;5014912;28;20416;-66
2022/04/15 07:11:57;;;;;;;17.20;13.83;;;12.40;99.90;;;;;;5014582;28;20181;-66
2022/04/15 07:14:23;;;;;;;14.20;12.90;;;12.40;99.90;;;;;;5013734;28;20535;-66
2022/04/15 07:16:49;;;;;;;13.13;11.10;;;12.30;99.90;;;;;;5013599;28;20207;-66
2022/04/15 07:19:15;;;;;;;16.70;12.20;;;12.30;99.90;;;;;;5013403;28;20902;-66
2022/04/15 07:21:45;;;;;;;13.13;11.00;;;12.30;99.90;;;;;;5013438;28;20179;-66
2022/04/15 07:24:11;;;;;;;13.50;11.43;;;12.30;99.90;;;;;;5013555;28;20416;-66
2022/04/15 07:26:37;;;;;;;13.63;12.33;;;12.40;99.90;;;;;;5013358;28;20434;-66
2022/04/15 07:29:03;;;;;;;13.17;11.70;;;12.30;99.90;;;;;;5013175;28;20971;-66
2022/04/15 07:31:29;;;;;;;15.33;12.67;;;12.20;99.90;;;;;;5014092;28;20481;-66
2022/04/15 07:33:54;;;;;;;14.60;12.23;;;12.20;99.90;;;;;;5013672;28;20417;-66
2022/04/15 07:39:04;;;;;;;15.43;11.83;;;12.20;99.90;;;;;;5013308;28;20611;-68
2022/04/15 07:41:30;;;;;;;14.30;12.33;;;12.20;99.90;;;;;;5013872;28;20435;-66
2022/04/15 07:43:56;;;;;;;13.90;11.93;;;12.20;99.90;;;;;;5013358;28;20461;-66
2022/04/15 07:46:22;;;;;;;13.53;11.47;;;12.20;99.90;;;;;;5014004;28;20873;-66
2022/04/15 07:48:47;;;;;;;14.43;12.70;;;12.20;99.90;;;;;;5011711;28;20218;-66
2022/04/15 07:51:13;;;;;;;15.90;13.10;;;12.20;99.90;;;;;;5013512;28;20585;-66
2022/04/15 07:53:38;;;;;;;16.83;13.00;;;12.30;99.90;;;;;;5013770;28;20222;-66
2022/04/15 07:56:05;;;;;;;14.70;13.20;;;12.30;99.90;;;;;;4994242;28;20200;-66
2022/04/15 07:58:31;;;;;;;14.77;13.17;;;12.20;99.90;;;;;;4993868;28;20181;-66
2022/04/15 08:01:00;;;;;;;17.20;12.70;;;12.30;99.90;;;;;;5011322;28;20476;-66
2022/04/15 08:03:26;;;;;;;14.73;12.50;;;12.40;99.90;;;;;;5013299;28;20533;-66
2022/04/15 08:05:52;;;;;;;13.53;12.17;;;12.40;99.90;;;;;;5013447;28;20478;-66
2022/04/15 08:08:18;;;;;;;13.13;11.40;;;12.60;99.90;;;;;;5012920;28;20418;-66
2022/04/15 08:10:44;;;;;;;12.10;10.90;;;12.60;99.90;;;;;;5013132;28;20197;-66
2022/04/15 08:13:09;;;;;;;65.67;43.83;;;12.60;99.20;;;;;;5013192;28;20227;-66
2022/04/15 08:15:35;;;;;;;48.23;35.70;;;12.70;99.50;;;;;;5013487;28;20180;-66
2022/04/15 08:18:01;;;;;;;16.60;14.90;;;12.70;98.90;;;;;;5012304;28;20172;-67
2022/04/15 08:20:27;;;;;;;14.50;11.60;;;12.80;98.80;;;;;;5013513;28;20233;-66
2022/04/15 08:22:52;;;;;;;11.80;10.70;;;12.90;98.70;;;;;;5011371;28;20461;-66
2022/04/15 08:25:19;;;;;;;13.17;11.87;;;12.90;99.00;;;;;;5012545;28;20676;-66
2022/04/15 08:27:44;;;;;;;15.40;12.00;;;12.90;99.10;;;;;;5012704;28;20179;-67
2022/04/15 08:30:10;;;;;;;10.03;9.03;;;12.80;99.80;;;;;;5012467;28;20442;-66
2022/04/15 08:32:36;;;;;;;8.30;7.50;;;12.80;99.40;;;;;;5011236;28;20250;-66
2022/04/15 08:35:04;;;;;;;8.93;8.10;;;12.80;98.80;;;;;;4992762;28;20511;-66
2022/04/15 08:37:30;;;;;;;8.03;7.23;;;12.80;98.90;;;;;;4995683;28;20179;-66
2022/04/15 08:39:56;;;;;;;8.70;7.70;;;12.80;98.90;;;;;;5013129;28;20421;-66
2022/04/15 08:42:22;;;;;;;9.43;8.60;;;12.80;98.60;;;;;;5012593;28;20540;-66
2022/04/15 08:44:51;;;;;;;9.97;9.07;;;12.70;99.10;;;;;;5013136;28;20500;-66
2022/04/15 08:47:18;;;;;;;11.40;10.20;;;12.70;99.30;;;;;;5010874;28;20430;-67
2022/04/15 08:49:44;;;;;;;11.67;9.90;;;12.70;98.80;;;;;;5011982;28;20836;-66
2022/04/15 08:52:16;;;;;;;11.37;10.27;;;12.80;98.90;;;;;;5012090;28;20445;-66
2022/04/15 08:54:43;;;;;;;11.20;10.10;;;12.70;98.10;;;;;;5011346;28;20406;-67
2022/04/15 08:57:09;;;;;;;13.47;9.97;;;12.80;97.90;;;;;;5013641;28;20433;-66
2022/04/15 08:59:35;;;;;;;10.73;9.60;;;12.80;98.30;;;;;;5009184;28;20508;-66
2022/04/15 09:02:00;;;;;;;10.23;9.30;;;12.80;98.50;;;;;;5010102;28;20720;-72
2022/04/15 09:04:26;;;;;;;10.73;9.70;;;12.80;98.90;;;;;;5011845;28;20175;-66
2022/04/15 09:06:59;;;;;;;11.83;10.63;;;12.80;98.80;;;;;;5011606;28;20268;-66
2022/04/15 09:09:29;;;;;;;13.63;11.83;;;12.80;98.60;;;;;;5012310;28;20230;-66
2022/04/15 09:11:56;;;;;;;13.67;12.17;;;12.80;98.60;;;;;;5011734;28;20826;-66
2022/04/15 09:14:23;;;;;;;12.87;11.57;;;12.70;98.80;;;;;;5010153;28;20457;-65
2022/04/15 09:16:49;;;;;;;12.50;11.30;;;12.70;99.00;;;;;;5010877;28;20426;-66
2022/04/15 09:19:16;;;;;;;15.60;13.23;;;12.70;99.20;;;;;;5011348;28;20441;-66
2022/04/15 09:21:50;;;;;;;20.17;15.60;;;12.70;98.80;;;;;;5011307;28;20654;-67
2022/04/15 09:24:17;;;;;;;25.03;20.50;;;12.80;99.10;;;;;;5023651;28;20779;-67
2022/04/15 09:26:46;;;;;;;24.90;20.23;;;12.80;99.00;;;;;;5009182;28;20522;-67
2022/04/15 09:29:13;;;;;;;28.90;22.57;;;12.90;98.90;;;;;;5010286;28;20433;-65
2022/04/15 09:31:38;;;;;;;24.90;19.13;;;12.80;99.00;;;;;;5010648;28;20442;-65
2022/04/15 09:34:07;;;;;;;17.80;15.20;;;12.80;98.90;;;;;;5020507;28;20790;-66
2022/04/15 09:36:34;;;;;;;423.37;274.73;;;12.80;99.00;;;;;;5012107;28;20190;-66
2022/04/15 09:39:04;;;;;;;44.67;31.10;;;12.80;99.20;;;;;;5010551;28;20428;-70
2022/04/15 09:41:31;;;;;;;32.73;25.23;;;12.90;99.10;;;;;;5010138;28;20568;-66
2022/04/15 09:43:59;;;;;;;30.10;23.80;;;12.80;99.30;;;;;;5008964;28;20458;-66
2022/04/15 09:46:27;;;;;;;31.37;24.13;;;12.90;99.60;;;;;;5010983;28;20568;-67
2022/04/15 09:49:09;;;;;;;28.73;22.67;;;12.80;99.80;;;;;;5003718;28;20470;-65
2022/04/15 09:51:45;;;;;;;29.77;23.37;;;12.80;99.70;;;;;;5013499;28;20436;-65
2022/04/15 09:54:28;;;;;;;22.97;19.97;;;12.80;99.80;;;;;;5014812;28;20417;-66
2022/04/15 09:56:57;;;;;;;19.70;17.10;;;12.80;99.70;;;;;;5013804;28;20941;-65
2022/04/15 09:59:27;;;;;;;17.97;15.80;;;12.80;99.60;;;;;;5013787;28;20898;-66
2022/04/15 10:02:02;;;;;;;14.30;12.80;;;12.80;99.40;;;;;;5015824;28;20516;-65
2022/04/15 10:04:28;;;;;;;11.90;10.67;;;12.90;99.30;;;;;;5005266;28;20433;-66
2022/04/15 10:06:55;;;;;;;11.00;10.00;;;12.80;99.20;;;;;;5015585;28;20418;-66
2022/04/15 10:09:21;;;;;;;9.90;8.80;;;12.80;99.40;;;;;;5014317;28;20426;-65
2022/04/15 10:11:48;;;;;;;11.47;10.10;;;12.80;99.10;;;;;;5015390;28;20424;-67
2022/04/15 10:14:16;;;;;;;9.70;8.80;;;12.80;98.80;;;;;;5012770;28;20764;-68
2022/04/15 10:16:43;;;;;;;11.97;9.57;;;12.80;99.30;;;;;;5015216;28;20429;-67
2022/04/15 10:19:10;;;;;;;11.73;10.53;;;12.80;99.20;;;;;;5015145;28;20419;-67
2022/04/15 10:21:49;;;;;;;9.30;8.40;;;12.80;98.90;;;;;;5013660;28;20929;-67
2022/04/15 10:24:16;;;;;;;9.57;8.67;;;13.00;99.20;;;;;;5014911;28;20517;-67
2022/04/15 10:26:49;;;;;;;10.20;9.23;;;12.90;99.30;;;;;;5014597;28;20438;-66
2022/04/15 10:29:15;;;;;;;9.40;8.60;;;13.00;99.00;;;;;;5014860;28;20407;-66
2022/04/15 10:31:44;;;;;;;7.83;7.13;;;13.00;98.90;;;;;;5014735;28;20429;-66
2022/04/15 10:34:19;;;;;;;9.20;8.40;;;13.00;99.40;;;;;;5014370;28;20484;-66
2022/04/15 10:37:11;;;;;;;9.50;8.60;;;13.10;99.60;;;;;;5015242;28;20429;-66
2022/04/15 10:39:48;;;;;;;9.73;8.83;;;13.00;99.40;;;;;;5012897;28;20439;-66
2022/04/15 10:42:19;;;;;;;10.27;9.37;;;13.00;99.50;;;;;;5014673;28;20839;-66
2022/04/15 10:44:46;;;;;;;9.87;8.87;;;13.00;99.50;;;;;;5014812;28;20421;-66
2022/04/15 10:47:17;;;;;;;9.03;8.13;;;13.00;99.60;;;;;;5014573;28;20424;-66
2022/04/15 10:49:56;;;;;;;9.10;8.30;;;13.00;99.90;;;;;;5014574;28;20536;-66
2022/04/15 10:52:25;;;;;;;9.30;8.50;;;13.10;99.70;;;;;;5001675;28;20482;-65
2022/04/15 10:55:13;;;;;;;9.07;8.27;;;13.10;99.10;;;;;;5014251;28;20754;-65
2022/04/15 10:57:40;;;;;;;10.30;7.93;;;13.20;99.50;;;;;;5013764;28;20433;-65
2022/04/15 11:03:02;;;;;;;8.80;8.10;;;13.20;99.10;;;;;;5013890;28;20953;-65
2022/04/15 11:05:49;;;;;;;8.57;7.80;;;13.30;98.60;;;;;;5013909;28;20417;-65
2022/04/15 11:08:18;;;;;;;9.10;8.20;;;13.30;98.20;;;;;;5003967;28;20433;-65
2022/04/15 11:11:03;;;;;;;8.10;7.37;;;13.30;98.10;;;;;;5014679;28;20443;-65
2022/04/15 11:13:43;;;;;;;8.60;7.90;;;13.40;98.30;;;;;;5013995;28;20416;-65
2022/04/15 11:16:11;;;;;;;7.90;7.20;;;13.40;98.70;;;;;;5013911;28;20427;-66
2022/04/15 11:18:43;;;;;;;9.30;8.40;;;13.40;98.70;;;;;;5014113;28;20736;-66
2022/04/15 11:21:24;;;;;;;8.80;8.00;;;13.40;98.60;;;;;;5013731;28;20465;-66
2022/04/15 11:23:52;;;;;;;8.53;7.67;;;13.40;99.30;;;;;;5014361;28;20474;-66
2022/04/15 11:26:20;;;;;;;9.63;8.63;;;13.50;99.20;;;;;;5013429;28;20482;-66
2022/04/15 11:28:47;;;;;;;8.27;7.57;;;13.50;98.80;;;;;;5014206;28;20421;-66
2022/04/15 11:31:31;;;;;;;9.10;8.10;;;13.50;97.70;;;;;;5013601;28;20419;-66
2022/04/15 11:34:04;;;;;;;9.10;8.30;;;13.60;97.60;;;;;;5014107;28;20416;-66
2022/04/15 11:36:35;;;;;;;7.80;7.20;;;13.60;97.70;;;;;;5013009;28;20397;-66
2022/04/15 11:39:03;;;;;;;10.27;7.90;;;13.70;97.50;;;;;;5013541;28;20425;-67
2022/04/15 11:41:29;;;;;;;7.67;6.93;;;13.70;96.80;;;;;;5013110;28;21044;-66
2022/04/15 11:44:01;;;;;;;8.30;7.57;;;13.80;96.90;;;;;;5012845;28;20473;-66
2022/04/15 11:46:36;;;;;;;9.30;8.50;;;13.80;97.20;;;;;;5012801;28;20416;-66
2022/04/15 11:49:04;;;;;;;8.03;7.43;;;13.50;95.50;;;;;;5012065;28;20482;-66
2022/04/15 11:51:30;;;;;;;7.50;6.90;;;13.30;96.40;;;;;;5012553;28;20434;-66
2022/04/15 11:53:57;;;;;;;7.53;7.00;;;13.30;96.30;;;;;;5013268;28;20515;-66
2022/04/15 11:56:26;;;;;;;8.00;7.30;;;13.20;96.60;;;;;;5012561;28;20434;-65
2022/04/15 11:58:52;;;;;;;404.67;256.63;;;13.20;97.10;;;;;;5012981;28;20979;-66
2022/04/15 12:01:30;;;;;;;17.57;15.10;;;13.30;97.70;;;;;;5011346;28;20484;-66
2022/04/15 12:03:56;;;;;;;8.77;7.70;;;13.30;96.80;;;;;;5013117;28;20494;-66
2022/04/15 12:06:22;;;;;;;12.00;10.80;;;13.30;97.00;;;;;;5011789;28;20440;-66
2022/04/15 12:08:51;;;;;;;10.17;9.17;;;13.20;97.50;;;;;;5012923;28;20227;-65
2022/04/15 12:11:23;;;;;;;8.23;7.50;;;13.20;97.40;;;;;;5012216;28;20771;-66
2022/04/15 12:14:01;;;;;;;8.00;7.27;;;13.30;96.90;;;;;;5013079;28;20399;-66
2022/04/15 12:16:33;;;;;;;7.23;6.63;;;13.00;96.40;;;;;;4992643;28;20413;-66
2022/04/15 12:18:59;;;;;;;7.83;6.50;;;12.80;97.00;;;;;;4993061;28;20438;-66
2022/04/15 12:21:27;;;;;;;7.43;6.73;;;12.90;96.80;;;;;;4992533;28;20463;-67
2022/04/15 12:24:10;;;;;;;6.73;6.23;;;13.00;97.00;;;;;;5002790;28;20462;-66
2022/04/15 12:26:52;;;;;;;7.73;7.13;;;13.10;97.60;;;;;;5011976;28;20460;-66
2022/04/15 12:32:32;;;;;;;7.63;7.03;;;13.30;97.00;;;;;;5012350;28;20445;-66
2022/04/15 12:35:01;;;;;;;7.63;6.93;;;13.10;96.90;;;;;;5012398;28;20432;-66
2022/04/15 12:37:50;;;;;;;8.13;7.40;;;13.30;97.60;;;;;;5010630;28;20466;-66
2022/04/15 12:40:17;;;;;;;8.13;7.43;;;13.30;96.70;;;;;;5011217;28;20777;-66
2022/04/15 12:42:46;;;;;;;7.70;7.10;;;13.40;96.50;;;;;;5012355;28;20498;-66
2022/04/15 12:45:16;;;;;;;7.20;6.70;;;13.50;96.60;;;;;;5010218;28;20435;-71
2022/04/15 12:47:45;;;;;;;8.63;7.87;;;13.60;96.10;;;;;;5009950;28;20602;-66